This is the latest recevied weather packets stored in our database for station/object AE5HO. If no packets are shown the sender has not sent any weather packets the latest 10 day(s).
| Time | Temp. | Humidity | Pressure | Rain* | Wind** | Luminosity | Snow |
|---|---|---|---|---|---|---|---|
| 1778225711 | 15.56° C | 95% | 1015.7 hPa | 18.03 mm | - | 0 W/m² | - |
| 1778225409 | 16.11° C | 94% | 1015.8 hPa | 15.49 mm | - | 0 W/m² | - |
| 1778225104 | 16.11° C | 90% | 1016.3 hPa | 13.72 mm | - | 0 W/m² | - |
| 1778224802 | 16.67° C | 87% | 1016.1 hPa | 8.89 mm | - | 0 W/m² | - |
| 1778224500 | 17.22° C | 81% | 1015.6 hPa | 0 mm | - | 0 W/m² | - |
| 1778224197 | 17.22° C | 81% | 1016 hPa | 0 mm | - | 0 W/m² | - |
| 1778223895 | 17.22° C | 80% | 1015.4 hPa | 0 mm | - | 0 W/m² | - |
| 1778223593 | 17.22° C | 81% | 1015.6 hPa | 0 mm | - | 0 W/m² | - |
| 1778223291 | 17.22° C | 80% | 1015.4 hPa | 0 mm | - | 0 W/m² | - |
| 1778222989 | 17.22° C | 80% | 1015.6 hPa | 0 mm | - | 0 W/m² | - |
| 1778222685 | 16.67° C | 80% | 1015.7 hPa | 0 mm | - | 0 W/m² | - |
| 1778222383 | 16.67° C | 81% | 1015.6 hPa | 0 mm | - | 0 W/m² | - |
| 1778222080 | 16.67° C | 81% | 1015.6 hPa | 0 mm | - | 0 W/m² | - |
| 1778221778 | 16.67° C | 80% | 1015.9 hPa | 0 mm | - | 0 W/m² | - |
| 1778221475 | 16.67° C | 80% | 1015.7 hPa | 0 mm | - | 0 W/m² | - |
| 1778221172 | 16.67° C | 80% | 1015.9 hPa | 0 mm | - | 0 W/m² | - |
| 1778220870 | 16.67° C | 81% | 1016.3 hPa | 0 mm | - | 0 W/m² | - |
| 1778220566 | 16.67° C | 81% | 1016.3 hPa | 0 mm | - | 0 W/m² | - |
| 1778220264 | 16.67° C | 81% | 1016.1 hPa | 0 mm | - | 0 W/m² | - |
| 1778219959 | 16.67° C | 81% | 1015.9 hPa | 0 mm | - | 0 W/m² | - |
| 1778219656 | 16.11° C | 81% | 1015.9 hPa | 0 mm | - | 0 W/m² | - |
| 1778219353 | 16.11° C | 80% | 1016.1 hPa | 0 mm | - | 0 W/m² | - |
| 1778219051 | 16.67° C | 79% | 1016.1 hPa | 0 mm | - | 0 W/m² | - |
| 1778218747 | 16.67° C | 79% | 1015.9 hPa | 0 mm | - | 0 W/m² | - |
| 1778218444 | 16.67° C | 79% | 1015.9 hPa | 0 mm | - | 0 W/m² | - |
* Rain latest hour (hover to see other rain measurements)
** Current wind speed in m/s (hover to see current wind gust speed)